Portada
METAR-TAF:

METAR-TAF

Aeroports :

Air Force Station

Cap Canaveral, Florida, Estats Units d'Amèrica

latitud: 28-28N, longitud: 080-33W, altitud: 3 m

Observació

L'informe es va fer fa 41 minuts, a les 06:05 UTC
Vent 7 kt del Nord-Oest
Temperatura 26°C
Humitat 100%
Pressió 1012 hPa
Visibilitat: 16.1 km
Cel ennuvolat a una alçada de 1900 ft
Cel ennuvolat a una alçada de 2600 ft

METAR: KXMR 160605Z AUTO 31007KT 10SM BKN019 BKN026 26/26 A2988 RMK AO2 RAE04DZB04E05 CIG 019V027 BKN019 V SCT SLPNO CHINO RWY31 $

Hora: 02:46 (06:46 UTC)


TAF: manca

Observacions i pronòstics meteorològics de més de 4000 aeroports (METAR i TAF).

Les estacions disponibles són els punts grocs i vermells al mapa.

Posi el ratolí al punt desitjat per veure el nom de l'estació.

Feu clic per veure les observacions i els pronòstics meteorològics.

Per canviar el mapa: feu clic els botons verds amb una creu de color negre per apropar; al botó verd amb un guió per allunyar la imatge; o en les fletxes verdes per a mapes adjacents.


METAR-TAF: